METAR Data
IDs: Format: Raw Decoded Include TAF

Data at: 2150 UTC 08 Aug 2020

KHII 082140Z AUTO 23006KT 210V270 10SM CLR 42/00 A2982 RMK AO2
KHII 082115Z AUTO 21007KT 10SM CLR 41/00 A2984 RMK AO2
KHII 082055Z AUTO 21006KT 10SM CLR 41/00 A2984 RMK AO2
KHII 082035Z AUTO 18005KT 10SM CLR 40/00 A2985 RMK AO2
KHII 082015Z AUTO 17007KT 10SM CLR 41/00 A2985 RMK AO2
KHII 081955Z AUTO 22006KT 10SM CLR 40/M02 A2986 RMK AO2
KHII 081940Z AUTO 24005KT 10SM CLR 40/M02 A2987 RMK AO2
KHII 081915Z AUTO 23008KT 10SM CLR 39/M03 A2987 RMK AO2
KHII 081855Z AUTO 21005KT 10SM CLR 39/M03 A2988 RMK AO2
KHII 081835Z AUTO 18003KT 10SM CLR 38/M04 A2989 RMK AO2
KHII 081810Z AUTO 00000KT 10SM CLR 37/M04 A2989 RMK AO2
KHII 081735Z AUTO 29003KT 10SM CLR 35/M04 A2990 RMK AO2
KHII 081715Z AUTO 28004KT 10SM CLR 34/M04 A2990 RMK AO2
KHII 081650Z AUTO 24003KT 10SM CLR 33/M04 A2991 RMK AO2
KHII 081635Z AUTO 26003KT 10SM CLR 33/M04 A2991 RMK AO2
KHII 081615Z AUTO 28004KT 10SM CLR 32/M03 A2990 RMK AO2
KHII 081555Z AUTO 27003KT 10SM CLR 31/M03 A2991 RMK AO2
KHII 081535Z AUTO 27003KT 10SM CLR 30/M04 A2990 RMK AO2
KHII 081515Z AUTO 00000KT 10SM CLR 30/M05 A2990 RMK AO2
KHII 081455Z AUTO 00000KT 10SM CLR 29/M05 A2990 RMK AO2
KHII 081430Z AUTO 00000KT 10SM CLR 28/M05 A2990 RMK AO2
KHII 081415Z AUTO 00000KT 10SM CLR 27/M05 A2989 RMK AO2
KHII 081400Z AUTO 00000KT 10SM CLR 28/M05 A2989 RMK AO2
KHII 081335Z AUTO 00000KT 10SM CLR 27/M06 A2988 RMK AO2
KHII 081250Z AUTO 00000KT 10SM CLR 26/M06 A2986 RMK AO2
KHII 081230Z AUTO 00000KT 10SM CLR 26/M06 A2986 RMK AO2
KHII 081220Z AUTO 00000KT 10SM CLR 27/M06 A2985 RMK AO2
KHII 081155Z AUTO 00000KT 10SM CLR 27/M06 A2984 RMK AO2
KHII 081135Z AUTO 00000KT 10SM CLR 27/M07 A2984 RMK AO2
KHII 081120Z AUTO 00000KT 10SM CLR 26/M07 A2984 RMK AO2
KHII 081055Z AUTO 10004KT 10SM CLR 27/M07 A2984 RMK AO2
KHII 081035Z AUTO 00000KT 10SM CLR 29/M07 A2983 RMK AO2
KHII 080955Z AUTO 34003KT 10SM CLR 30/M08 A2983 RMK AO2
KHII 080935Z AUTO 00000KT 10SM CLR 29/M08 A2982 RMK AO2
KHII 080915Z AUTO 00000KT 10SM CLR 30/M09 A2983 RMK AO2
KHII 080850Z AUTO 00000KT 10SM CLR 29/M09 A2983 RMK AO2
KHII 080815Z AUTO 16003KT 10SM CLR 30/M09 A2983 RMK AO2
KHII 080755Z AUTO 12004KT 10SM CLR 31/M10 A2982 RMK AO2
KHII 080740Z AUTO 12004KT 10SM CLR 31/M10 A2982 RMK AO2
KHII 080715Z AUTO 11003KT 10SM CLR 30/M10 A2982 RMK AO2
KHII 080650Z AUTO 16003KT 10SM CLR 33/M10 A2982 RMK AO2
KHII 080635Z AUTO 17003KT 10SM CLR 33/M10 A2982 RMK AO2
KHII 080615Z AUTO 19003KT 10SM CLR 33/M10 A2981 RMK AO2
KHII 080555Z AUTO 00000KT 10SM CLR 33/M09 A2981 RMK AO2
KHII 080535Z AUTO 11008KT 10SM CLR 34/M09 A2981 RMK AO2
KHII 080510Z AUTO 11007KT 10SM CLR 34/M08 A2980 RMK AO2
KHII 080455Z AUTO 10006KT 10SM CLR 34/M09 A2980 RMK AO2
KHII 080435Z AUTO 11007KT 10SM CLR 34/M08 A2980 RMK AO2
KHII 080410Z AUTO 10006KT 10SM CLR 34/M08 A2979 RMK AO2
KHII 080355Z AUTO 10006KT 10SM CLR 34/M07 A2978 RMK AO2
KHII 080335Z AUTO 13005KT 10SM CLR 35/M06 A2977 RMK AO2
KHII 080315Z AUTO 13005KT 10SM CLR 35/M05 A2977 RMK AO2
KHII 080250Z AUTO 17004KT 10SM CLR 37/M03 A2976 RMK AO2
KHII 080235Z AUTO 19005KT 10SM CLR 38/M03 A2976 RMK AO2
KHII 080220Z AUTO 20007KT 10SM CLR 38/M03 A2976 RMK AO2
KHII 080155Z AUTO 20008KT 10SM CLR 39/M07 A2976 RMK AO2
KHII 080135Z AUTO 20007KT 10SM CLR 40/M08 A2976 RMK AO2
KHII 080120Z AUTO 21006KT 10SM CLR 40/M09 A2976 RMK AO2
KHII 080050Z AUTO 17009G15KT 10SM CLR 40/M09 A2976 RMK AO2
KHII 080035Z AUTO 16006G14KT 10SM CLR 40/M10 A2976 RMK AO2
KHII 080015Z AUTO 24003KT 10SM CLR 40/M09 A2976 RMK AO2
KHII 072355Z AUTO 19007G15KT 190V250 10SM CLR 40/M09 A2976 RMK AO2
KHII 072335Z AUTO 20007KT 10SM CLR 41/M09 A2977 RMK AO2
KHII 072320Z AUTO 19008G16KT 160V220 10SM CLR 41/M08 A2977 RMK AO2
KHII 072255Z AUTO 18007G14KT 10SM CLR 40/M09 A2978 RMK AO2
KHII 072240Z AUTO 19007KT 10SM CLR 40/M09 A2978 RMK AO2
KHII 072210Z AUTO 17005KT 10SM CLR 40/M08 A2979 RMK AO2
KHII 072200Z AUTO 16006KT 10SM CLR 40/M07 A2979 RMK AO2
KHII 072135Z AUTO 21009G14KT 10SM CLR 39/M06 A2980 RMK AO2
KHII 072115Z AUTO 21006G15KT 10SM CLR 39/M05 A2981 RMK AO2
KHII 072055Z AUTO 17007G15KT 120V260 10SM CLR 39/M04 A2981 RMK AO2
KHII 072035Z AUTO 17010G18KT 10SM CLR 39/M04 A2982 RMK AO2
KHII 072015Z AUTO 22007KT 10SM CLR 38/M04 A2983 RMK AO2
KHII 071955Z AUTO 17008G17KT 140V200 10SM CLR 39/M05 A2983 RMK AO2
KHII 071930Z AUTO 18006G17KT 10SM CLR 38/M05 A2983 RMK AO2
KHII 071915Z AUTO 15011G19KT 10SM CLR 38/M05 A2983 RMK AO2
KHII 071850Z AUTO 17014G18KT 10SM CLR 38/M05 A2984 RMK AO2
KHII 071835Z AUTO 17010G21KT 10SM CLR 38/M04 A2984 RMK AO2
KHII 071810Z AUTO 18014G19KT 10SM CLR 37/M03 A2985 RMK AO2
KHII 071755Z AUTO 17011G16KT 10SM CLR 36/M04 A2985 RMK AO2
KHII 071735Z AUTO 15012G17KT 10SM CLR 36/M05 A2985 RMK AO2
KHII 071715Z AUTO 18011KT 10SM CLR 35/M05 A2985 RMK AO2
KHII 071650Z AUTO 15010KT 10SM CLR 35/M05 A2985 RMK AO2
KHII 071630Z AUTO 16011KT 10SM CLR 34/M04 A2985 RMK AO2
KHII 071615Z AUTO 19009KT 150V210 10SM CLR 33/M03 A2984 RMK AO2
KHII 071550Z AUTO 20007KT 10SM CLR 32/M01 A2984 RMK AO2
KHII 071535Z AUTO 21005G15KT 10SM CLR 32/M01 A2984 RMK AO2
KHII 071515Z AUTO 18008KT 10SM CLR 32/M03 A2983 RMK AO2
KHII 071455Z AUTO 00000KT 10SM CLR 30/M01 A2982 RMK AO2
KHII 071430Z AUTO 00000KT 10SM CLR 29/00 A2981 RMK AO2
KHII 071415Z AUTO 00000KT 10SM CLR 29/00 A2981 RMK AO2
KHII 071350Z AUTO 00000KT 10SM CLR 28/03 A2980 RMK AO2
KHII 071335Z AUTO 00000KT 10SM CLR 28/03 A2980 RMK AO2
KHII 071315Z AUTO 26004KT 10SM CLR 29/M02 A2979 RMK AO2
KHII 071255Z AUTO 16009KT 10SM CLR 30/M03 A2978 RMK AO2
KHII 071235Z AUTO 13012G17KT 10SM CLR 30/M04 A2977 RMK AO2
KHII 071215Z AUTO 13012G16KT 10SM CLR 30/M03 A2976 RMK AO2
KHII 071155Z AUTO 14010KT 10SM CLR 30/M02 A2975 RMK AO2
KHII 071135Z AUTO 14012KT 10SM CLR 30/M02 A2975 RMK AO2
KHII 071115Z AUTO 16010KT 10SM CLR 30/M02 A2975 RMK AO2
KHII 071055Z AUTO 16009KT 10SM CLR 30/M02 A2975 RMK AO2
KHII 071035Z AUTO 00000KT 10SM CLR 29/M02 A2975 RMK AO2
KHII 071015Z AUTO 17005KT 10SM CLR 29/M03 A2974 RMK AO2
KHII 070955Z AUTO 00000KT 10SM CLR 29/M03 A2974 RMK AO2